sensor_id;sensor_type;location;lat;lon;timestamp;P1;durP1;ratioP1;P2;durP2;ratioP2
12129;SDS011;6128;59.340;18.040;2022-08-19T00:01:56;18.90;;;16.73;;
12129;SDS011;6128;59.340;18.040;2022-08-19T00:04:25;21.07;;;16.77;;
12129;SDS011;6128;59.340;18.040;2022-08-19T00:06:54;19.80;;;16.80;;
12129;SDS011;6128;59.340;18.040;2022-08-19T00:09:23;19.30;;;17.23;;
12129;SDS011;6128;59.340;18.040;2022-08-19T00:11:50;21.90;;;17.60;;
12129;SDS011;6128;59.340;18.040;2022-08-19T00:14:18;19.17;;;17.17;;
12129;SDS011;6128;59.340;18.040;2022-08-19T00:16:47;18.70;;;16.80;;
12129;SDS011;6128;59.340;18.040;2022-08-19T00:19:16;20.30;;;18.23;;
12129;SDS011;6128;59.340;18.040;2022-08-19T00:21:43;19.67;;;17.57;;
12129;SDS011;6128;59.340;18.040;2022-08-19T00:24:11;20.33;;;17.93;;
12129;SDS011;6128;59.340;18.040;2022-08-19T00:26:43;26.20;;;19.77;;
12129;SDS011;6128;59.340;18.040;2022-08-19T00:29:11;20.20;;;18.10;;
12129;SDS011;6128;59.340;18.040;2022-08-19T00:31:39;23.67;;;19.17;;
12129;SDS011;6128;59.340;18.040;2022-08-19T00:34:08;22.33;;;19.07;;
12129;SDS011;6128;59.340;18.040;2022-08-19T00:36:36;21.33;;;18.90;;
12129;SDS011;6128;59.340;18.040;2022-08-19T00:39:04;24.47;;;19.43;;
12129;SDS011;6128;59.340;18.040;2022-08-19T00:41:32;24.93;;;19.60;;
12129;SDS011;6128;59.340;18.040;2022-08-19T00:44:02;21.10;;;18.73;;
12129;SDS011;6128;59.340;18.040;2022-08-19T00:46:31;21.17;;;18.97;;
12129;SDS011;6128;59.340;18.040;2022-08-19T00:49:01;21.93;;;19.50;;
12129;SDS011;6128;59.340;18.040;2022-08-19T00:51:40;21.10;;;18.67;;
12129;SDS011;6128;59.340;18.040;2022-08-19T00:54:09;21.20;;;18.93;;
12129;SDS011;6128;59.340;18.040;2022-08-19T00:56:36;20.43;;;17.67;;
12129;SDS011;6128;59.340;18.040;2022-08-19T00:59:05;20.80;;;18.53;;
12129;SDS011;6128;59.340;18.040;2022-08-19T01:01:34;20.93;;;18.73;;
12129;SDS011;6128;59.340;18.040;2022-08-19T01:04:01;19.53;;;17.57;;
12129;SDS011;6128;59.340;18.040;2022-08-19T01:06:28;21.27;;;19.17;;
12129;SDS011;6128;59.340;18.040;2022-08-19T01:08:57;19.87;;;17.80;;
12129;SDS011;6128;59.340;18.040;2022-08-19T01:11:26;20.17;;;18.13;;
12129;SDS011;6128;59.340;18.040;2022-08-19T01:13:55;22.57;;;18.17;;
12129;SDS011;6128;59.340;18.040;2022-08-19T01:16:24;20.40;;;18.47;;
12129;SDS011;6128;59.340;18.040;2022-08-19T01:18:53;20.67;;;18.70;;
12129;SDS011;6128;59.340;18.040;2022-08-19T01:21:22;21.43;;;19.43;;
12129;SDS011;6128;59.340;18.040;2022-08-19T01:23:58;20.13;;;18.13;;
12129;SDS011;6128;59.340;18.040;2022-08-19T01:26:26;20.27;;;18.30;;
12129;SDS011;6128;59.340;18.040;2022-08-19T01:28:54;19.93;;;17.93;;
12129;SDS011;6128;59.340;18.040;2022-08-19T01:31:23;20.23;;;18.17;;
12129;SDS011;6128;59.340;18.040;2022-08-19T01:33:52;21.03;;;19.03;;
12129;SDS011;6128;59.340;18.040;2022-08-19T01:36:22;20.13;;;18.33;;
12129;SDS011;6128;59.340;18.040;2022-08-19T01:38:51;20.77;;;18.97;;
12129;SDS011;6128;59.340;18.040;2022-08-19T01:41:20;20.27;;;18.37;;
12129;SDS011;6128;59.340;18.040;2022-08-19T01:43:50;18.90;;;17.20;;
12129;SDS011;6128;59.340;18.040;2022-08-19T01:46:18;20.43;;;18.73;;
12129;SDS011;6128;59.340;18.040;2022-08-19T01:48:46;19.80;;;17.97;;
12129;SDS011;6128;59.340;18.040;2022-08-19T01:51:13;20.10;;;18.43;;
12129;SDS011;6128;59.340;18.040;2022-08-19T01:53:41;20.83;;;18.90;;
12129;SDS011;6128;59.340;18.040;2022-08-19T01:56:08;21.27;;;19.23;;
12129;SDS011;6128;59.340;18.040;2022-08-19T01:58:38;21.63;;;19.63;;
12129;SDS011;6128;59.340;18.040;2022-08-19T02:01:07;21.43;;;19.53;;
12129;SDS011;6128;59.340;18.040;2022-08-19T02:03:35;21.53;;;19.33;;
12129;SDS011;6128;59.340;18.040;2022-08-19T02:06:02;21.17;;;19.20;;
12129;SDS011;6128;59.340;18.040;2022-08-19T02:08:31;20.63;;;18.67;;
12129;SDS011;6128;59.340;18.040;2022-08-19T02:11:00;19.47;;;17.83;;
12129;SDS011;6128;59.340;18.040;2022-08-19T02:13:28;20.57;;;18.50;;
12129;SDS011;6128;59.340;18.040;2022-08-19T02:15:57;21.00;;;19.03;;
12129;SDS011;6128;59.340;18.040;2022-08-19T02:18:24;19.67;;;17.80;;
12129;SDS011;6128;59.340;18.040;2022-08-19T02:20:51;20.40;;;18.60;;
12129;SDS011;6128;59.340;18.040;2022-08-19T02:23:18;21.23;;;19.13;;
12129;SDS011;6128;59.340;18.040;2022-08-19T02:25:46;19.97;;;18.23;;
12129;SDS011;6128;59.340;18.040;2022-08-19T02:28:14;20.63;;;18.80;;
12129;SDS011;6128;59.340;18.040;2022-08-19T02:30:41;20.93;;;19.13;;
12129;SDS011;6128;59.340;18.040;2022-08-19T02:33:10;21.77;;;19.70;;
12129;SDS011;6128;59.340;18.040;2022-08-19T02:35:40;20.47;;;18.57;;
12129;SDS011;6128;59.340;18.040;2022-08-19T02:38:08;22.27;;;20.08;;
12129;SDS011;6128;59.340;18.040;2022-08-19T02:40:54;21.17;;;19.03;;
12129;SDS011;6128;59.340;18.040;2022-08-19T02:43:22;20.60;;;18.47;;
12129;SDS011;6128;59.340;18.040;2022-08-19T02:45:51;22.63;;;20.63;;
12129;SDS011;6128;59.340;18.040;2022-08-19T02:48:20;21.83;;;19.83;;
12129;SDS011;6128;59.340;18.040;2022-08-19T02:50:49;20.63;;;18.77;;
12129;SDS011;6128;59.340;18.040;2022-08-19T02:53:20;20.87;;;19.03;;
12129;SDS011;6128;59.340;18.040;2022-08-19T02:55:48;21.83;;;19.83;;
12129;SDS011;6128;59.340;18.040;2022-08-19T02:58:16;21.97;;;19.97;;
12129;SDS011;6128;59.340;18.040;2022-08-19T03:00:45;20.60;;;18.80;;
12129;SDS011;6128;59.340;18.040;2022-08-19T03:03:14;20.50;;;18.70;;
12129;SDS011;6128;59.340;18.040;2022-08-19T03:05:46;19.87;;;18.10;;
12129;SDS011;6128;59.340;18.040;2022-08-19T03:08:19;20.90;;;19.17;;
12129;SDS011;6128;59.340;18.040;2022-08-19T03:10:47;20.47;;;18.47;;
12129;SDS011;6128;59.340;18.040;2022-08-19T03:13:15;20.13;;;18.40;;
12129;SDS011;6128;59.340;18.040;2022-08-19T03:15:45;19.90;;;18.27;;
12129;SDS011;6128;59.340;18.040;2022-08-19T03:18:13;21.10;;;19.23;;
12129;SDS011;6128;59.340;18.040;2022-08-19T03:20:41;21.23;;;19.30;;
12129;SDS011;6128;59.340;18.040;2022-08-19T03:23:11;21.47;;;19.47;;
12129;SDS011;6128;59.340;18.040;2022-08-19T03:25:42;21.77;;;19.63;;
12129;SDS011;6128;59.340;18.040;2022-08-19T03:28:10;23.13;;;20.98;;
12129;SDS011;6128;59.340;18.040;2022-08-19T03:30:39;22.87;;;20.87;;
12129;SDS011;6128;59.340;18.040;2022-08-19T03:33:07;21.87;;;20.07;;
12129;SDS011;6128;59.340;18.040;2022-08-19T03:35:36;22.47;;;20.27;;
12129;SDS011;6128;59.340;18.040;2022-08-19T03:38:05;23.63;;;21.23;;
12129;SDS011;6128;59.340;18.040;2022-08-19T03:40:33;23.57;;;21.47;;
12129;SDS011;6128;59.340;18.040;2022-08-19T03:43:03;22.90;;;20.90;;
12129;SDS011;6128;59.340;18.040;2022-08-19T03:45:30;23.20;;;21.10;;
12129;SDS011;6128;59.340;18.040;2022-08-19T03:47:58;22.40;;;20.40;;
12129;SDS011;6128;59.340;18.040;2022-08-19T03:50:25;26.17;;;23.37;;
12129;SDS011;6128;59.340;18.040;2022-08-19T03:52:52;25.40;;;23.10;;
12129;SDS011;6128;59.340;18.040;2022-08-19T03:55:21;22.77;;;20.77;;
12129;SDS011;6128;59.340;18.040;2022-08-19T03:57:48;23.53;;;21.43;;
12129;SDS011;6128;59.340;18.040;2022-08-19T04:00:15;23.00;;;20.83;;
12129;SDS011;6128;59.340;18.040;2022-08-19T04:02:43;20.13;;;18.47;;
12129;SDS011;6128;59.340;18.040;2022-08-19T04:05:10;21.70;;;19.73;;
12129;SDS011;6128;59.340;18.040;2022-08-19T04:07:39;22.57;;;20.73;;
12129;SDS011;6128;59.340;18.040;2022-08-19T04:10:06;21.33;;;19.42;;
12129;SDS011;6128;59.340;18.040;2022-08-19T04:12:35;22.00;;;20.10;;
12129;SDS011;6128;59.340;18.040;2022-08-19T04:15:03;21.60;;;19.63;;
12129;SDS011;6128;59.340;18.040;2022-08-19T04:17:31;20.67;;;18.97;;
12129;SDS011;6128;59.340;18.040;2022-08-19T04:19:59;19.87;;;18.17;;
12129;SDS011;6128;59.340;18.040;2022-08-19T04:22:26;19.75;;;18.13;;
12129;SDS011;6128;59.340;18.040;2022-08-19T04:24:53;21.40;;;19.58;;
12129;SDS011;6128;59.340;18.040;2022-08-19T04:27:20;21.65;;;19.77;;
12129;SDS011;6128;59.340;18.040;2022-08-19T04:29:49;20.98;;;19.30;;
12129;SDS011;6128;59.340;18.040;2022-08-19T04:32:17;20.63;;;18.92;;
12129;SDS011;6128;59.340;18.040;2022-08-19T04:34:44;19.63;;;17.83;;
12129;SDS011;6128;59.340;18.040;2022-08-19T04:37:11;20.42;;;18.63;;
12129;SDS011;6128;59.340;18.040;2022-08-19T04:39:39;21.25;;;19.45;;
12129;SDS011;6128;59.340;18.040;2022-08-19T04:42:23;22.58;;;20.63;;
12129;SDS011;6128;59.340;18.040;2022-08-19T04:45:08;22.10;;;20.15;;
12129;SDS011;6128;59.340;18.040;2022-08-19T04:47:37;23.20;;;21.20;;
12129;SDS011;6128;59.340;18.040;2022-08-19T04:50:05;21.70;;;19.65;;
12129;SDS011;6128;59.340;18.040;2022-08-19T04:52:35;23.05;;;20.92;;
12129;SDS011;6128;59.340;18.040;2022-08-19T04:55:02;21.42;;;19.52;;
12129;SDS011;6128;59.340;18.040;2022-08-19T04:57:31;20.98;;;19.02;;
12129;SDS011;6128;59.340;18.040;2022-08-19T04:59:59;20.77;;;19.00;;
12129;SDS011;6128;59.340;18.040;2022-08-19T05:02:27;19.75;;;18.00;;
12129;SDS011;6128;59.340;18.040;2022-08-19T05:04:56;18.42;;;16.75;;
12129;SDS011;6128;59.340;18.040;2022-08-19T05:07:25;20.05;;;18.35;;
12129;SDS011;6128;59.340;18.040;2022-08-19T05:09:53;18.70;;;17.10;;
12129;SDS011;6128;59.340;18.040;2022-08-19T05:12:20;22.75;;;20.85;;
12129;SDS011;6128;59.340;18.040;2022-08-19T05:14:47;21.15;;;19.35;;
12129;SDS011;6128;59.340;18.040;2022-08-19T05:17:15;19.05;;;17.55;;
12129;SDS011;6128;59.340;18.040;2022-08-19T05:19:43;21.23;;;19.23;;
12129;SDS011;6128;59.340;18.040;2022-08-19T05:22:27;22.58;;;20.35;;
12129;SDS011;6128;59.340;18.040;2022-08-19T05:25:02;19.92;;;18.25;;
12129;SDS011;6128;59.340;18.040;2022-08-19T05:27:31;22.67;;;20.55;;
12129;SDS011;6128;59.340;18.040;2022-08-19T05:29:59;21.70;;;19.90;;
12129;SDS011;6128;59.340;18.040;2022-08-19T05:32:26;21.30;;;19.30;;
12129;SDS011;6128;59.340;18.040;2022-08-19T05:34:55;22.23;;;19.92;;
12129;SDS011;6128;59.340;18.040;2022-08-19T05:37:22;19.42;;;17.90;;
12129;SDS011;6128;59.340;18.040;2022-08-19T05:39:51;18.48;;;16.92;;
12129;SDS011;6128;59.340;18.040;2022-08-19T05:42:19;19.27;;;17.58;;
12129;SDS011;6128;59.340;18.040;2022-08-19T05:44:48;17.15;;;15.60;;
12129;SDS011;6128;59.340;18.040;2022-08-19T05:47:16;17.00;;;15.50;;
12129;SDS011;6128;59.340;18.040;2022-08-19T05:49:45;16.88;;;15.48;;
12129;SDS011;6128;59.340;18.040;2022-08-19T05:52:14;16.95;;;15.30;;
12129;SDS011;6128;59.340;18.040;2022-08-19T05:54:42;16.17;;;14.75;;
12129;SDS011;6128;59.340;18.040;2022-08-19T05:57:13;15.30;;;13.90;;
12129;SDS011;6128;59.340;18.040;2022-08-19T05:59:40;15.10;;;13.80;;
12129;SDS011;6128;59.340;18.040;2022-08-19T06:02:10;16.17;;;14.88;;
12129;SDS011;6128;59.340;18.040;2022-08-19T06:04:38;15.65;;;14.30;;
12129;SDS011;6128;59.340;18.040;2022-08-19T06:07:08;15.40;;;13.80;;
12129;SDS011;6128;59.340;18.040;2022-08-19T06:09:36;15.18;;;13.63;;
12129;SDS011;6128;59.340;18.040;2022-08-19T06:12:03;14.85;;;13.52;;
12129;SDS011;6128;59.340;18.040;2022-08-19T06:14:32;14.55;;;13.25;;
12129;SDS011;6128;59.340;18.040;2022-08-19T06:17:01;15.77;;;13.75;;
12129;SDS011;6128;59.340;18.040;2022-08-19T06:19:29;13.10;;;12.00;;
12129;SDS011;6128;59.340;18.040;2022-08-19T06:21:58;12.23;;;11.13;;
12129;SDS011;6128;59.340;18.040;2022-08-19T06:24:27;11.73;;;10.73;;
12129;SDS011;6128;59.340;18.040;2022-08-19T06:26:57;11.10;;;10.10;;
12129;SDS011;6128;59.340;18.040;2022-08-19T06:29:26;14.23;;;10.55;;
12129;SDS011;6128;59.340;18.040;2022-08-19T06:31:55;8.98;;;8.13;;
12129;SDS011;6128;59.340;18.040;2022-08-19T06:34:24;9.45;;;8.57;;
12129;SDS011;6128;59.340;18.040;2022-08-19T06:36:53;8.30;;;7.60;;
12129;SDS011;6128;59.340;18.040;2022-08-19T06:39:22;8.52;;;7.82;;
12129;SDS011;6128;59.340;18.040;2022-08-19T06:41:51;7.72;;;6.97;;
12129;SDS011;6128;59.340;18.040;2022-08-19T06:44:22;7.47;;;6.78;;
12129;SDS011;6128;59.340;18.040;2022-08-19T06:46:52;8.18;;;7.38;;
12129;SDS011;6128;59.340;18.040;2022-08-19T06:49:20;7.63;;;6.93;;
12129;SDS011;6128;59.340;18.040;2022-08-19T06:51:48;7.03;;;6.32;;
12129;SDS011;6128;59.340;18.040;2022-08-19T06:54:16;7.10;;;6.40;;
12129;SDS011;6128;59.340;18.040;2022-08-19T06:56:44;7.53;;;6.63;;
12129;SDS011;6128;59.340;18.040;2022-08-19T06:59:12;7.07;;;6.38;;
12129;SDS011;6128;59.340;18.040;2022-08-19T07:01:43;6.55;;;5.95;;
12129;SDS011;6128;59.340;18.040;2022-08-19T07:04:12;6.72;;;6.00;;
12129;SDS011;6128;59.340;18.040;2022-08-19T07:06:41;6.35;;;5.75;;
12129;SDS011;6128;59.340;18.040;2022-08-19T07:09:10;6.05;;;5.43;;
12129;SDS011;6128;59.340;18.040;2022-08-19T07:11:39;6.88;;;5.53;;
12129;SDS011;6128;59.340;18.040;2022-08-19T07:14:10;8.30;;;5.35;;
12129;SDS011;6128;59.340;18.040;2022-08-19T07:16:39;6.18;;;4.95;;
12129;SDS011;6128;59.340;18.040;2022-08-19T07:19:08;6.40;;;5.80;;
12129;SDS011;6128;59.340;18.040;2022-08-19T07:21:35;7.40;;;5.30;;
12129;SDS011;6128;59.340;18.040;2022-08-19T07:24:02;5.93;;;5.07;;
12129;SDS011;6128;59.340;18.040;2022-08-19T07:26:31;9.73;;;5.43;;
12129;SDS011;6128;59.340;18.040;2022-08-19T07:28:59;8.25;;;4.65;;
12129;SDS011;6128;59.340;18.040;2022-08-19T07:31:27;6.47;;;5.00;;
12129;SDS011;6128;59.340;18.040;2022-08-19T07:33:55;6.82;;;5.70;;
12129;SDS011;6128;59.340;18.040;2022-08-19T07:36:24;6.88;;;4.88;;
12129;SDS011;6128;59.340;18.040;2022-08-19T07:38:57;6.30;;;5.65;;
12129;SDS011;6128;59.340;18.040;2022-08-19T07:41:26;7.00;;;5.68;;
12129;SDS011;6128;59.340;18.040;2022-08-19T07:43:57;5.72;;;5.15;;
12129;SDS011;6128;59.340;18.040;2022-08-19T07:46:29;11.15;;;7.93;;
12129;SDS011;6128;59.340;18.040;2022-08-19T07:48:57;7.93;;;4.20;;
12129;SDS011;6128;59.340;18.040;2022-08-19T07:51:27;7.10;;;4.75;;
12129;SDS011;6128;59.340;18.040;2022-08-19T07:53:57;7.45;;;4.60;;
12129;SDS011;6128;59.340;18.040;2022-08-19T07:56:25;5.60;;;3.97;;
12129;SDS011;6128;59.340;18.040;2022-08-19T07:58:52;9.40;;;4.65;;
12129;SDS011;6128;59.340;18.040;2022-08-19T08:01:20;5.95;;;4.70;;
12129;SDS011;6128;59.340;18.040;2022-08-19T08:03:50;7.88;;;4.47;;
12129;SDS011;6128;59.340;18.040;2022-08-19T08:06:37;5.07;;;4.38;;
12129;SDS011;6128;59.340;18.040;2022-08-19T08:09:24;6.03;;;4.20;;
12129;SDS011;6128;59.340;18.040;2022-08-19T08:11:54;8.75;;;5.03;;
12129;SDS011;6128;59.340;18.040;2022-08-19T08:14:24;6.65;;;4.03;;
12129;SDS011;6128;59.340;18.040;2022-08-19T08:16:53;6.15;;;4.20;;
12129;SDS011;6128;59.340;18.040;2022-08-19T08:19:21;6.15;;;4.10;;
12129;SDS011;6128;59.340;18.040;2022-08-19T08:21:51;9.27;;;4.38;;
12129;SDS011;6128;59.340;18.040;2022-08-19T08:24:20;5.00;;;3.95;;
12129;SDS011;6128;59.340;18.040;2022-08-19T08:26:48;7.30;;;4.05;;
12129;SDS011;6128;59.340;18.040;2022-08-19T08:29:15;7.38;;;4.20;;
12129;SDS011;6128;59.340;18.040;2022-08-19T08:31:45;7.15;;;4.47;;
12129;SDS011;6128;59.340;18.040;2022-08-19T08:34:13;9.05;;;3.90;;
12129;SDS011;6128;59.340;18.040;2022-08-19T08:36:42;7.22;;;6.53;;
12129;SDS011;6128;59.340;18.040;2022-08-19T08:39:12;6.30;;;3.53;;
12129;SDS011;6128;59.340;18.040;2022-08-19T08:41:44;7.35;;;3.80;;
12129;SDS011;6128;59.340;18.040;2022-08-19T08:44:16;5.13;;;3.65;;
12129;SDS011;6128;59.340;18.040;2022-08-19T08:46:47;4.85;;;3.63;;
12129;SDS011;6128;59.340;18.040;2022-08-19T08:49:20;9.25;;;4.03;;
12129;SDS011;6128;59.340;18.040;2022-08-19T08:51:58;8.60;;;4.03;;
12129;SDS011;6128;59.340;18.040;2022-08-19T08:54:32;6.72;;;3.97;;
12129;SDS011;6128;59.340;18.040;2022-08-19T08:57:04;5.68;;;3.70;;
12129;SDS011;6128;59.340;18.040;2022-08-19T08:59:38;4.30;;;3.50;;
12129;SDS011;6128;59.340;18.040;2022-08-19T09:02:07;5.05;;;3.25;;
12129;SDS011;6128;59.340;18.040;2022-08-19T09:04:35;4.50;;;3.47;;
12129;SDS011;6128;59.340;18.040;2022-08-19T09:07:10;5.97;;;3.65;;
12129;SDS011;6128;59.340;18.040;2022-08-19T09:09:49;6.45;;;3.20;;
12129;SDS011;6128;59.340;18.040;2022-08-19T09:12:20;3.95;;;3.25;;
12129;SDS011;6128;59.340;18.040;2022-08-19T09:14:57;4.60;;;2.97;;
12129;SDS011;6128;59.340;18.040;2022-08-19T09:17:27;5.63;;;3.13;;
12129;SDS011;6128;59.340;18.040;2022-08-19T09:19:59;4.50;;;3.03;;
12129;SDS011;6128;59.340;18.040;2022-08-19T09:22:29;6.82;;;3.42;;
12129;SDS011;6128;59.340;18.040;2022-08-19T09:24:58;8.00;;;3.55;;
12129;SDS011;6128;59.340;18.040;2022-08-19T09:27:26;5.07;;;3.50;;
12129;SDS011;6128;59.340;18.040;2022-08-19T09:29:54;4.22;;;3.58;;
12129;SDS011;6128;59.340;18.040;2022-08-19T09:32:22;9.50;;;3.78;;
12129;SDS011;6128;59.340;18.040;2022-08-19T09:34:50;4.63;;;3.75;;
12129;SDS011;6128;59.340;18.040;2022-08-19T09:37:19;10.13;;;3.80;;
12129;SDS011;6128;59.340;18.040;2022-08-19T09:39:47;8.65;;;3.75;;
12129;SDS011;6128;59.340;18.040;2022-08-19T09:42:16;5.93;;;3.85;;
12129;SDS011;6128;59.340;18.040;2022-08-19T09:44:43;5.60;;;3.63;;
12129;SDS011;6128;59.340;18.040;2022-08-19T09:47:12;5.03;;;3.80;;
12129;SDS011;6128;59.340;18.040;2022-08-19T09:49:40;6.47;;;4.10;;
12129;SDS011;6128;59.340;18.040;2022-08-19T09:52:08;6.35;;;4.15;;
12129;SDS011;6128;59.340;18.040;2022-08-19T09:54:36;6.97;;;4.13;;
12129;SDS011;6128;59.340;18.040;2022-08-19T09:57:03;10.40;;;3.85;;
12129;SDS011;6128;59.340;18.040;2022-08-19T09:59:33;10.00;;;3.97;;
12129;SDS011;6128;59.340;18.040;2022-08-19T10:02:00;6.43;;;3.90;;
12129;SDS011;6128;59.340;18.040;2022-08-19T10:04:28;6.65;;;3.80;;
12129;SDS011;6128;59.340;18.040;2022-08-19T10:07:09;7.13;;;3.92;;
12129;SDS011;6128;59.340;18.040;2022-08-19T10:09:36;6.47;;;4.13;;
12129;SDS011;6128;59.340;18.040;2022-08-19T10:12:04;5.28;;;3.33;;
12129;SDS011;6128;59.340;18.040;2022-08-19T10:14:33;4.75;;;3.72;;
12129;SDS011;6128;59.340;18.040;2022-08-19T10:17:00;5.88;;;3.65;;
12129;SDS011;6128;59.340;18.040;2022-08-19T10:19:28;8.90;;;3.97;;
12129;SDS011;6128;59.340;18.040;2022-08-19T10:22:02;5.35;;;3.80;;
12129;SDS011;6128;59.340;18.040;2022-08-19T10:24:30;7.65;;;4.20;;
12129;SDS011;6128;59.340;18.040;2022-08-19T10:26:58;5.43;;;3.53;;
12129;SDS011;6128;59.340;18.040;2022-08-19T10:29:28;5.68;;;3.95;;
12129;SDS011;6128;59.340;18.040;2022-08-19T10:31:57;6.78;;;3.67;;
12129;SDS011;6128;59.340;18.040;2022-08-19T10:34:25;5.53;;;4.20;;
12129;SDS011;6128;59.340;18.040;2022-08-19T10:36:53;4.88;;;3.70;;
12129;SDS011;6128;59.340;18.040;2022-08-19T10:39:20;5.72;;;3.95;;
12129;SDS011;6128;59.340;18.040;2022-08-19T10:41:47;4.88;;;3.60;;
12129;SDS011;6128;59.340;18.040;2022-08-19T10:44:14;5.30;;;3.92;;
12129;SDS011;6128;59.340;18.040;2022-08-19T10:46:43;5.68;;;3.90;;
12129;SDS011;6128;59.340;18.040;2022-08-19T10:49:13;6.60;;;3.85;;
12129;SDS011;6128;59.340;18.040;2022-08-19T10:51:41;6.07;;;3.92;;
12129;SDS011;6128;59.340;18.040;2022-08-19T10:54:26;5.47;;;3.38;;
12129;SDS011;6128;59.340;18.040;2022-08-19T10:57:13;6.22;;;4.10;;
12129;SDS011;6128;59.340;18.040;2022-08-19T10:59:40;5.22;;;3.70;;
12129;SDS011;6128;59.340;18.040;2022-08-19T11:02:11;5.80;;;3.88;;
12129;SDS011;6128;59.340;18.040;2022-08-19T11:04:40;5.43;;;3.92;;
12129;SDS011;6128;59.340;18.040;2022-08-19T11:07:08;5.35;;;3.75;;
12129;SDS011;6128;59.340;18.040;2022-08-19T11:09:37;4.65;;;3.00;;
12129;SDS011;6128;59.340;18.040;2022-08-19T11:12:07;4.80;;;3.38;;
12129;SDS011;6128;59.340;18.040;2022-08-19T11:14:35;5.57;;;3.83;;
12129;SDS011;6128;59.340;18.040;2022-08-19T11:17:03;4.85;;;3.65;;
12129;SDS011;6128;59.340;18.040;2022-08-19T11:19:31;6.82;;;3.42;;
12129;SDS011;6128;59.340;18.040;2022-08-19T11:22:00;8.50;;;3.70;;
12129;SDS011;6128;59.340;18.040;2022-08-19T11:24:28;5.85;;;3.92;;
12129;SDS011;6128;59.340;18.040;2022-08-19T11:27:00;8.35;;;3.60;;
12129;SDS011;6128;59.340;18.040;2022-08-19T11:29:29;5.88;;;3.70;;
12129;SDS011;6128;59.340;18.040;2022-08-19T11:31:57;3.90;;;3.47;;
12129;SDS011;6128;59.340;18.040;2022-08-19T11:34:27;5.28;;;3.47;;
12129;SDS011;6128;59.340;18.040;2022-08-19T11:36:55;5.20;;;3.30;;
12129;SDS011;6128;59.340;18.040;2022-08-19T11:39:26;7.75;;;3.63;;
12129;SDS011;6128;59.340;18.040;2022-08-19T11:41:55;4.53;;;3.30;;
12129;SDS011;6128;59.340;18.040;2022-08-19T11:44:24;6.72;;;3.40;;
12129;SDS011;6128;59.340;18.040;2022-08-19T11:46:51;5.43;;;3.40;;
12129;SDS011;6128;59.340;18.040;2022-08-19T11:49:19;5.22;;;3.40;;
12129;SDS011;6128;59.340;18.040;2022-08-19T11:51:48;4.43;;;3.97;;
12129;SDS011;6128;59.340;18.040;2022-08-19T11:54:16;7.38;;;4.03;;
12129;SDS011;6128;59.340;18.040;2022-08-19T11:56:45;5.13;;;3.55;;
12129;SDS011;6128;59.340;18.040;2022-08-19T11:59:14;7.35;;;3.50;;
12129;SDS011;6128;59.340;18.040;2022-08-19T12:01:41;5.90;;;3.38;;
12129;SDS011;6128;59.340;18.040;2022-08-19T12:04:11;7.65;;;4.13;;
12129;SDS011;6128;59.340;18.040;2022-08-19T12:06:39;5.13;;;3.90;;
12129;SDS011;6128;59.340;18.040;2022-08-19T12:09:07;6.30;;;3.53;;
12129;SDS011;6128;59.340;18.040;2022-08-19T12:11:35;4.10;;;3.50;;
12129;SDS011;6128;59.340;18.040;2022-08-19T12:14:05;6.10;;;3.67;;
12129;SDS011;6128;59.340;18.040;2022-08-19T12:16:33;6.22;;;3.45;;
12129;SDS011;6128;59.340;18.040;2022-08-19T12:19:00;5.10;;;3.88;;
12129;SDS011;6128;59.340;18.040;2022-08-19T12:21:31;3.83;;;3.22;;
12129;SDS011;6128;59.340;18.040;2022-08-19T12:24:00;4.38;;;3.20;;
12129;SDS011;6128;59.340;18.040;2022-08-19T12:26:29;4.18;;;3.00;;
12129;SDS011;6128;59.340;18.040;2022-08-19T12:28:57;5.47;;;3.03;;
12129;SDS011;6128;59.340;18.040;2022-08-19T12:31:26;6.72;;;3.33;;
12129;SDS011;6128;59.340;18.040;2022-08-19T12:33:54;6.50;;;3.25;;
12129;SDS011;6128;59.340;18.040;2022-08-19T12:36:22;5.30;;;3.40;;
12129;SDS011;6128;59.340;18.040;2022-08-19T12:38:50;4.82;;;3.20;;
12129;SDS011;6128;59.340;18.040;2022-08-19T12:41:17;3.65;;;3.30;;
12129;SDS011;6128;59.340;18.040;2022-08-19T12:43:47;9.20;;;3.40;;
12129;SDS011;6128;59.340;18.040;2022-08-19T12:46:15;5.13;;;3.10;;
12129;SDS011;6128;59.340;18.040;2022-08-19T12:48:44;3.97;;;3.08;;
12129;SDS011;6128;59.340;18.040;2022-08-19T12:51:14;4.47;;;2.72;;
12129;SDS011;6128;59.340;18.040;2022-08-19T12:53:43;5.38;;;3.10;;
12129;SDS011;6128;59.340;18.040;2022-08-19T12:56:12;4.80;;;2.83;;
12129;SDS011;6128;59.340;18.040;2022-08-19T12:58:40;7.35;;;3.40;;
12129;SDS011;6128;59.340;18.040;2022-08-19T13:01:09;3.85;;;3.22;;
12129;SDS011;6128;59.340;18.040;2022-08-19T13:03:37;4.75;;;3.15;;
12129;SDS011;6128;59.340;18.040;2022-08-19T13:06:07;7.22;;;3.20;;
12129;SDS011;6128;59.340;18.040;2022-08-19T13:08:35;5.72;;;3.20;;
12129;SDS011;6128;59.340;18.040;2022-08-19T13:11:07;4.47;;;3.50;;
12129;SDS011;6128;59.340;18.040;2022-08-19T13:13:37;8.25;;;3.50;;
12129;SDS011;6128;59.340;18.040;2022-08-19T13:16:06;5.35;;;3.60;;
12129;SDS011;6128;59.340;18.040;2022-08-19T13:18:34;4.85;;;3.63;;
12129;SDS011;6128;59.340;18.040;2022-08-19T13:21:03;8.43;;;3.30;;
12129;SDS011;6128;59.340;18.040;2022-08-19T13:23:33;6.25;;;3.90;;
12129;SDS011;6128;59.340;18.040;2022-08-19T13:26:03;6.55;;;3.80;;
12129;SDS011;6128;59.340;18.040;2022-08-19T13:28:32;7.10;;;3.03;;
12129;SDS011;6128;59.340;18.040;2022-08-19T13:31:14;4.88;;;3.10;;
12129;SDS011;6128;59.340;18.040;2022-08-19T13:34:05;3.45;;;3.15;;
12129;SDS011;6128;59.340;18.040;2022-08-19T13:36:33;4.28;;;3.58;;
12129;SDS011;6128;59.340;18.040;2022-08-19T13:39:03;4.47;;;3.20;;
12129;SDS011;6128;59.340;18.040;2022-08-19T13:41:32;6.25;;;3.78;;
12129;SDS011;6128;59.340;18.040;2022-08-19T13:43:59;7.57;;;4.30;;
12129;SDS011;6128;59.340;18.040;2022-08-19T13:46:27;6.63;;;3.75;;
12129;SDS011;6128;59.340;18.040;2022-08-19T13:48:54;5.78;;;4.00;;
12129;SDS011;6128;59.340;18.040;2022-08-19T13:51:22;4.60;;;3.55;;
12129;SDS011;6128;59.340;18.040;2022-08-19T13:53:50;8.75;;;4.38;;
12129;SDS011;6128;59.340;18.040;2022-08-19T13:56:19;7.32;;;3.92;;
12129;SDS011;6128;59.340;18.040;2022-08-19T13:58:47;8.25;;;3.88;;
12129;SDS011;6128;59.340;18.040;2022-08-19T14:01:18;6.03;;;3.90;;
12129;SDS011;6128;59.340;18.040;2022-08-19T14:03:46;5.43;;;3.75;;
12129;SDS011;6128;59.340;18.040;2022-08-19T14:06:13;6.55;;;4.18;;
12129;SDS011;6128;59.340;18.040;2022-08-19T14:08:41;5.90;;;3.80;;
12129;SDS011;6128;59.340;18.040;2022-08-19T14:11:09;6.85;;;4.40;;
12129;SDS011;6128;59.340;18.040;2022-08-19T14:13:38;6.50;;;4.18;;
12129;SDS011;6128;59.340;18.040;2022-08-19T14:16:08;7.88;;;4.75;;
12129;SDS011;6128;59.340;18.040;2022-08-19T14:18:36;8.52;;;4.32;;
12129;SDS011;6128;59.340;18.040;2022-08-19T14:21:05;7.10;;;4.50;;
12129;SDS011;6128;59.340;18.040;2022-08-19T14:23:33;6.65;;;3.92;;
12129;SDS011;6128;59.340;18.040;2022-08-19T14:26:05;6.03;;;3.85;;
12129;SDS011;6128;59.340;18.040;2022-08-19T14:28:34;9.30;;;4.15;;
12129;SDS011;6128;59.340;18.040;2022-08-19T14:31:02;9.27;;;4.82;;
12129;SDS011;6128;59.340;18.040;2022-08-19T14:33:30;6.43;;;3.63;;
12129;SDS011;6128;59.340;18.040;2022-08-19T14:35:57;6.20;;;4.20;;
12129;SDS011;6128;59.340;18.040;2022-08-19T14:38:25;7.22;;;4.10;;
12129;SDS011;6128;59.340;18.040;2022-08-19T14:41:04;8.10;;;4.28;;
12129;SDS011;6128;59.340;18.040;2022-08-19T14:43:36;6.13;;;4.00;;
12129;SDS011;6128;59.340;18.040;2022-08-19T14:46:05;8.70;;;4.13;;
12129;SDS011;6128;59.340;18.040;2022-08-19T14:48:33;6.82;;;4.43;;